Time;durP1;ratioP1;P1;durP2;ratioP2;P2;SDS_P1;SDS_P2;PMS_P1;PMS_P2;Temp;Humidity;BMP_temperature;BMP_pressure;BME280_temperature;BME280_humidity;BME280_pressure;Samples;Min_cycle;Max_cycle;Signal;HPM_P1;HPM_P2
2024/01/12 00:01:12;;;;;;;10.20;6.87;;;;;;;;;;4961946;28;20209;-69
2024/01/12 00:03:39;;;;;;;15.13;8.13;;;;;;;;;;4969149;28;20230;-70
2024/01/12 00:06:07;;;;;;;15.57;8.63;;;;;;;;;;4969358;28;20213;-69
2024/01/12 00:08:34;;;;;;;18.43;8.97;;;;;;;;;;4959223;28;20300;-70
2024/01/12 00:11:02;;;;;;;16.37;9.10;;;;;;;;;;4969505;28;20214;-70
2024/01/12 00:13:29;;;;;;;17.63;9.13;;;;;;;;;;4968911;28;20590;-69
2024/01/12 00:15:56;;;;;;;19.93;10.43;;;;;;;;;;4968616;28;20214;-70
2024/01/12 00:18:23;;;;;;;22.83;10.07;;;;;;;;;;4969691;28;20211;-69
2024/01/12 00:20:50;;;;;;;20.83;10.13;;;;;;;;;;4964773;28;20210;-70
2024/01/12 00:23:17;;;;;;;20.80;9.47;;;;;;;;;;4957816;28;20205;-70
2024/01/12 00:25:44;;;;;;;20.27;9.20;;;;;;;;;;4969648;28;20210;-70
2024/01/12 00:28:12;;;;;;;19.23;9.27;;;;;;;;;;4969566;28;20791;-70
2024/01/12 00:30:39;;;;;;;20.50;10.00;;;;;;;;;;4969087;28;20751;-70
2024/01/12 00:33:06;;;;;;;17.07;9.40;;;;;;;;;;4972823;28;20226;-70
2024/01/12 00:35:33;;;;;;;19.33;9.80;;;;;;;;;;4971454;28;20229;-70
2024/01/12 00:38:00;;;;;;;17.50;9.17;;;;;;;;;;4973205;28;20211;-69
2024/01/12 00:40:27;;;;;;;20.53;9.80;;;;;;;;;;4970943;28;20222;-69
2024/01/12 00:42:54;;;;;;;15.00;8.30;;;;;;;;;;4973082;28;20218;-70
2024/01/12 00:45:23;;;;;;;18.20;9.40;;;;;;;;;;4972692;28;20217;-69
2024/01/12 00:47:50;;;;;;;16.90;9.10;;;;;;;;;;4972543;28;20222;-69
2024/01/12 00:50:17;;;;;;;16.17;8.33;;;;;;;;;;4971944;28;20245;-70
2024/01/12 00:52:44;;;;;;;15.83;8.47;;;;;;;;;;4972291;28;20238;-69
2024/01/12 00:55:11;;;;;;;12.67;7.03;;;;;;;;;;4972462;28;20210;-69
2024/01/12 00:57:38;;;;;;;12.03;7.00;;;;;;;;;;4972937;28;20202;-69
2024/01/12 01:00:07;;;;;;;14.13;7.60;;;;;;;;;;4972785;28;20221;-69
2024/01/12 01:02:35;;;;;;;12.27;6.93;;;;;;;;;;4972165;28;20214;-70
2024/01/12 01:05:02;;;;;;;11.27;7.10;;;;;;;;;;4971774;28;20210;-69
2024/01/12 01:07:29;;;;;;;11.20;6.77;;;;;;;;;;4971761;28;20207;-69
2024/01/12 01:09:56;;;;;;;15.13;7.03;;;;;;;;;;4972013;28;20213;-69
2024/01/12 01:12:23;;;;;;;10.80;6.47;;;;;;;;;;4971658;28;20690;-69
2024/01/12 01:14:50;;;;;;;10.57;6.83;;;;;;;;;;4971484;28;20824;-69
2024/01/12 01:17:17;;;;;;;14.47;6.87;;;;;;;;;;4972143;28;20209;-69
2024/01/12 01:19:46;;;;;;;12.40;6.60;;;;;;;;;;4971427;28;20600;-69
2024/01/12 01:22:13;;;;;;;11.90;6.27;;;;;;;;;;4972000;28;20214;-69
2024/01/12 01:24:40;;;;;;;9.80;6.40;;;;;;;;;;4972437;28;20218;-69
2024/01/12 01:27:07;;;;;;;9.53;5.90;;;;;;;;;;4972105;28;20206;-69
2024/01/12 01:29:34;;;;;;;7.93;6.00;;;;;;;;;;4972491;28;20289;-69
2024/01/12 01:32:01;;;;;;;13.57;7.03;;;;;;;;;;4969114;28;20214;-69
2024/01/12 01:34:28;;;;;;;14.40;7.13;;;;;;;;;;4972355;28;20230;-69
2024/01/12 01:37:01;;;;;;;12.47;6.03;;;;;;;;;;4972239;28;20206;-69
2024/01/12 01:39:28;;;;;;;10.70;6.47;;;;;;;;;;4972046;28;20269;-69
2024/01/12 01:41:56;;;;;;;9.93;6.23;;;;;;;;;;4971832;28;20200;-69
2024/01/12 01:44:25;;;;;;;9.87;6.23;;;;;;;;;;4970568;28;20203;-69
2024/01/12 01:46:52;;;;;;;8.23;5.40;;;;;;;;;;4961801;28;20211;-69
2024/01/12 01:49:19;;;;;;;10.77;5.47;;;;;;;;;;4971682;28;20858;-69
2024/01/12 01:51:47;;;;;;;9.53;5.57;;;;;;;;;;4971845;28;20237;-69
2024/01/12 01:54:15;;;;;;;12.03;7.00;;;;;;;;;;4971893;28;20234;-69
2024/01/12 01:56:42;;;;;;;10.70;6.27;;;;;;;;;;4971980;28;20202;-69
2024/01/12 01:59:10;;;;;;;13.53;6.73;;;;;;;;;;4970684;28;20208;-69
2024/01/12 02:04:40;;;;;;;12.53;7.47;;;;;;;;;;4964569;28;20213;-69
2024/01/12 02:07:07;;;;;;;20.40;7.83;;;;;;;;;;4970007;28;20309;-69
2024/01/12 02:09:35;;;;;;;12.30;7.67;;;;;;;;;;4971357;28;20693;-69
2024/01/12 02:12:04;;;;;;;14.57;7.93;;;;;;;;;;4978063;28;20257;-69
2024/01/12 02:14:31;;;;;;;16.13;8.30;;;;;;;;;;4980908;28;20233;-68
2024/01/12 02:16:58;;;;;;;13.73;7.63;;;;;;;;;;4969797;28;20695;-69
2024/01/12 02:19:25;;;;;;;15.37;7.80;;;;;;;;;;4971304;28;20574;-69
2024/01/12 02:21:53;;;;;;;15.43;8.47;;;;;;;;;;4970439;28;20298;-69
2024/01/12 02:24:20;;;;;;;13.77;7.90;;;;;;;;;;4970915;28;20210;-68
2024/01/12 02:26:47;;;;;;;15.10;8.23;;;;;;;;;;4971057;28;20738;-69
2024/01/12 02:29:14;;;;;;;12.07;7.57;;;;;;;;;;4970510;28;20412;-69
2024/01/12 02:31:41;;;;;;;13.87;7.83;;;;;;;;;;4971108;28;20206;-68
2024/01/12 02:34:08;;;;;;;14.50;8.27;;;;;;;;;;4969623;28;20231;-68
2024/01/12 02:36:35;;;;;;;14.83;7.90;;;;;;;;;;4964809;28;20266;-68
2024/01/12 02:39:05;;;;;;;13.47;7.90;;;;;;;;;;4971026;28;20215;-68
2024/01/12 02:41:32;;;;;;;13.77;8.10;;;;;;;;;;4970276;28;20209;-68
2024/01/12 02:43:59;;;;;;;15.63;7.60;;;;;;;;;;4970947;28;20215;-68
2024/01/12 02:46:26;;;;;;;14.10;8.40;;;;;;;;;;4970239;28;20218;-69
2024/01/12 02:48:53;;;;;;;13.87;7.70;;;;;;;;;;4970856;28;20228;-69
2024/01/12 02:51:20;;;;;;;12.20;7.30;;;;;;;;;;4969823;28;20290;-69
2024/01/12 02:53:47;;;;;;;13.53;8.10;;;;;;;;;;4968535;28;20339;-69
2024/01/12 02:56:15;;;;;;;12.33;6.77;;;;;;;;;;4966552;28;20203;-69
2024/01/12 02:58:42;;;;;;;13.90;7.17;;;;;;;;;;4989661;28;20213;-69
2024/01/12 03:01:09;;;;;;;16.13;6.93;;;;;;;;;;4977976;28;20229;-69
2024/01/12 03:03:36;;;;;;;11.27;7.63;;;;;;;;;;4959870;28;20221;-70
2024/01/12 03:06:05;;;;;;;10.43;6.60;;;;;;;;;;4953009;28;20209;-69
2024/01/12 03:08:32;;;;;;;15.60;7.53;;;;;;;;;;4968668;28;20207;-69
2024/01/12 03:10:59;;;;;;;13.63;7.73;;;;;;;;;;4970256;28;20216;-70
2024/01/12 03:13:27;;;;;;;20.17;8.10;;;;;;;;;;4968295;28;20215;-69
2024/01/12 03:15:54;;;;;;;11.97;7.27;;;;;;;;;;4969511;28;20685;-69
2024/01/12 03:18:22;;;;;;;17.73;8.20;;;;;;;;;;4969343;28;20213;-69
2024/01/12 03:20:49;;;;;;;12.43;8.13;;;;;;;;;;4969736;28;20221;-69
2024/01/12 03:23:16;;;;;;;14.57;7.47;;;;;;;;;;4968547;28;20584;-69
2024/01/12 03:25:43;;;;;;;14.20;8.27;;;;;;;;;;4954791;28;20203;-69
2024/01/12 03:28:10;;;;;;;12.97;7.47;;;;;;;;;;4969366;28;20211;-69
2024/01/12 03:30:38;;;;;;;11.87;7.50;;;;;;;;;;4969215;28;20222;-69
2024/01/12 03:33:05;;;;;;;14.57;8.13;;;;;;;;;;4969863;28;20223;-69
2024/01/12 03:35:33;;;;;;;14.80;7.80;;;;;;;;;;4969436;28;20306;-70
2024/01/12 03:38:00;;;;;;;17.47;8.47;;;;;;;;;;4957602;28;20748;-69
2024/01/12 03:40:27;;;;;;;15.03;7.83;;;;;;;;;;4965627;28;20303;-69
2024/01/12 03:42:54;;;;;;;15.50;8.30;;;;;;;;;;4969375;28;20685;-69
2024/01/12 03:45:21;;;;;;;17.03;8.03;;;;;;;;;;4969473;28;20213;-69
2024/01/12 03:47:49;;;;;;;12.43;7.43;;;;;;;;;;4968394;28;20210;-69
2024/01/12 03:50:16;;;;;;;12.57;7.67;;;;;;;;;;4969013;28;20262;-69
2024/01/12 03:52:43;;;;;;;11.90;7.97;;;;;;;;;;4968955;28;20236;-69
2024/01/12 03:55:10;;;;;;;17.33;8.53;;;;;;;;;;4969388;28;20231;-69
2024/01/12 03:57:37;;;;;;;14.87;8.30;;;;;;;;;;4965342;28;20218;-69
2024/01/12 04:00:05;;;;;;;12.77;7.80;;;;;;;;;;4969049;28;20648;-69
2024/01/12 04:02:33;;;;;;;18.73;9.60;;;;;;;;;;4969541;28;20302;-69
2024/01/12 04:05:01;;;;;;;16.07;8.60;;;;;;;;;;4968299;28;20213;-69
2024/01/12 04:07:28;;;;;;;14.40;8.93;;;;;;;;;;4972424;28;20210;-69
2024/01/12 04:09:55;;;;;;;13.90;8.23;;;;;;;;;;4973295;28;20699;-69
2024/01/12 04:12:22;;;;;;;18.10;8.93;;;;;;;;;;4974238;28;20209;-69
2024/01/12 04:14:49;;;;;;;18.07;8.53;;;;;;;;;;4973604;28;20228;-69
2024/01/12 04:17:16;;;;;;;12.93;8.73;;;;;;;;;;4973628;28;20210;-69
2024/01/12 04:19:43;;;;;;;27.13;12.07;;;;;;;;;;4970024;28;20201;-69
2024/01/12 04:22:11;;;;;;;18.67;9.70;;;;;;;;;;4954609;29;20215;-69
2024/01/12 04:24:38;;;;;;;21.10;9.47;;;;;;;;;;4972349;28;20207;-69
2024/01/12 04:27:06;;;;;;;16.13;9.13;;;;;;;;;;4973536;28;20209;-69
2024/01/12 04:29:34;;;;;;;16.03;9.03;;;;;;;;;;4973036;28;20234;-69
2024/01/12 04:32:01;;;;;;;15.47;8.87;;;;;;;;;;4973765;28;20202;-69
2024/01/12 04:34:28;;;;;;;15.87;9.43;;;;;;;;;;4972756;28;20258;-69
2024/01/12 04:36:55;;;;;;;22.53;9.07;;;;;;;;;;4973878;28;20222;-70
2024/01/12 04:39:23;;;;;;;15.20;9.00;;;;;;;;;;4972766;28;20239;-69
2024/01/12 04:41:51;;;;;;;14.80;8.67;;;;;;;;;;4968229;28;20201;-69
2024/01/12 04:44:18;;;;;;;17.10;8.57;;;;;;;;;;4954048;29;20217;-69
2024/01/12 04:46:45;;;;;;;21.63;9.67;;;;;;;;;;4954500;28;20216;-69
2024/01/12 04:49:12;;;;;;;16.53;8.53;;;;;;;;;;4966128;28;20235;-69
2024/01/12 04:51:39;;;;;;;18.73;9.03;;;;;;;;;;4973220;28;20248;-69
2024/01/12 04:54:06;;;;;;;16.97;9.20;;;;;;;;;;4973303;28;20611;-69
2024/01/12 04:56:34;;;;;;;14.10;8.17;;;;;;;;;;4972632;28;20220;-69
2024/01/12 04:59:01;;;;;;;15.70;8.90;;;;;;;;;;4973051;28;20284;-69
2024/01/12 05:01:28;;;;;;;17.30;8.40;;;;;;;;;;4972626;28;20571;-69
2024/01/12 05:03:55;;;;;;;19.03;9.50;;;;;;;;;;4972852;28;20626;-69
2024/01/12 05:06:22;;;;;;;16.30;8.90;;;;;;;;;;4972909;28;20214;-69
2024/01/12 05:08:50;;;;;;;17.47;9.00;;;;;;;;;;4972741;28;20314;-69
2024/01/12 05:11:17;;;;;;;15.20;9.00;;;;;;;;;;4972361;28;20206;-68
2024/01/12 05:13:45;;;;;;;20.50;8.83;;;;;;;;;;4973010;28;20209;-69
2024/01/12 05:16:11;;;;;;;17.07;8.93;;;;;;;;;;4971712;28;20679;-69
2024/01/12 05:18:38;;;;;;;18.07;8.77;;;;;;;;;;4971217;28;20224;-69
2024/01/12 05:21:05;;;;;;;17.33;9.07;;;;;;;;;;4972720;28;20290;-69
2024/01/12 05:23:32;;;;;;;17.70;9.07;;;;;;;;;;4972960;28;20561;-69
2024/01/12 05:25:59;;;;;;;17.03;9.13;;;;;;;;;;4972895;28;20210;-69
2024/01/12 05:28:26;;;;;;;17.63;9.00;;;;;;;;;;4972835;28;20308;-69
2024/01/12 05:30:55;;;;;;;18.30;9.37;;;;;;;;;;4972533;28;20207;-68
2024/01/12 05:33:22;;;;;;;18.43;10.27;;;;;;;;;;4956605;28;20203;-69
2024/01/12 05:35:49;;;;;;;25.80;9.80;;;;;;;;;;4973112;28;20255;-69
2024/01/12 05:38:16;;;;;;;17.83;10.17;;;;;;;;;;4972259;28;20440;-69
2024/01/12 05:40:43;;;;;;;19.07;9.63;;;;;;;;;;4971368;28;20667;-69
2024/01/12 05:43:10;;;;;;;17.50;9.17;;;;;;;;;;4955453;28;20216;-69
2024/01/12 05:45:37;;;;;;;15.03;9.10;;;;;;;;;;4961872;28;20556;-69
2024/01/12 05:48:06;;;;;;;15.60;9.63;;;;;;;;;;4972511;28;20223;-69
2024/01/12 05:50:33;;;;;;;18.80;8.93;;;;;;;;;;4968498;28;21111;-68
2024/01/12 05:53:00;;;;;;;19.87;9.50;;;;;;;;;;4972387;28;20225;-68
2024/01/12 05:55:27;;;;;;;16.20;9.67;;;;;;;;;;4971702;28;20230;-68
2024/01/12 05:57:54;;;;;;;18.57;9.53;;;;;;;;;;4970270;28;20211;-69
2024/01/12 06:00:21;;;;;;;17.60;9.53;;;;;;;;;;4972369;28;20233;-69
2024/01/12 06:02:48;;;;;;;18.37;9.80;;;;;;;;;;4970139;28;20213;-69
2024/01/12 06:05:17;;;;;;;18.00;10.13;;;;;;;;;;4972301;28;20219;-69
2024/01/12 06:07:44;;;;;;;20.43;10.37;;;;;;;;;;4971557;28;20230;-69
2024/01/12 06:10:12;;;;;;;16.87;9.77;;;;;;;;;;4972000;28;20224;-69
2024/01/12 06:12:39;;;;;;;20.73;10.27;;;;;;;;;;4963695;28;20221;-69
2024/01/12 06:15:07;;;;;;;15.77;9.73;;;;;;;;;;4962253;28;20637;-70
2024/01/12 06:17:34;;;;;;;18.97;9.70;;;;;;;;;;4971582;28;20206;-69
2024/01/12 06:20:01;;;;;;;20.63;9.97;;;;;;;;;;4972115;28;20215;-69
2024/01/12 06:22:29;;;;;;;16.33;8.80;;;;;;;;;;4970936;28;20359;-68
2024/01/12 06:24:56;;;;;;;16.03;9.00;;;;;;;;;;4970524;28;20218;-68
2024/01/12 06:27:23;;;;;;;17.13;8.97;;;;;;;;;;4961944;28;20207;-68
2024/01/12 06:29:50;;;;;;;17.37;8.80;;;;;;;;;;4966696;28;20356;-68
2024/01/12 06:32:17;;;;;;;16.50;8.80;;;;;;;;;;4970842;28;20216;-69
2024/01/12 06:34:44;;;;;;;13.23;8.20;;;;;;;;;;4971159;28;20232;-69
2024/01/12 06:37:11;;;;;;;15.87;9.17;;;;;;;;;;4972138;28;20202;-69
2024/01/12 06:39:40;;;;;;;18.07;9.40;;;;;;;;;;4982889;28;20671;-68
2024/01/12 06:42:07;;;;;;;18.10;8.37;;;;;;;;;;4970977;28;20649;-69
2024/01/12 06:44:34;;;;;;;15.63;8.83;;;;;;;;;;4970345;28;20214;-68
2024/01/12 06:47:03;;;;;;;16.03;7.87;;;;;;;;;;4961282;28;20208;-69
2024/01/12 06:49:30;;;;;;;14.13;8.30;;;;;;;;;;4966376;28;20257;-68
2024/01/12 06:51:57;;;;;;;16.30;9.27;;;;;;;;;;4970519;28;20257;-68
2024/01/12 06:54:24;;;;;;;14.20;8.87;;;;;;;;;;4968657;28;20210;-68
2024/01/12 06:56:56;;;;;;;17.97;9.00;;;;;;;;;;4968966;28;20270;-68
2024/01/12 06:59:23;;;;;;;17.27;9.53;;;;;;;;;;4969790;28;20241;-68
2024/01/12 07:01:50;;;;;;;16.93;9.77;;;;;;;;;;4958645;28;20678;-68
2024/01/12 07:04:17;;;;;;;16.87;8.57;;;;;;;;;;4969414;28;20225;-68
2024/01/12 07:06:44;;;;;;;15.30;9.17;;;;;;;;;;4969810;28;20199;-69
2024/01/12 07:09:13;;;;;;;19.37;9.13;;;;;;;;;;4969944;28;20683;-68
2024/01/12 07:11:41;;;;;;;16.80;9.27;;;;;;;;;;4969795;28;20215;-69
2024/01/12 07:14:09;;;;;;;16.90;10.03;;;;;;;;;;4969489;28;20199;-68
2024/01/12 07:16:37;;;;;;;16.83;8.90;;;;;;;;;;4969835;28;20237;-68
2024/01/12 07:19:04;;;;;;;17.30;9.37;;;;;;;;;;4969488;28;20887;-68
2024/01/12 07:21:31;;;;;;;17.37;8.77;;;;;;;;;;4969707;28;20210;-69
2024/01/12 07:23:58;;;;;;;17.93;9.60;;;;;;;;;;4973967;28;20211;-69
2024/01/12 07:26:25;;;;;;;16.33;9.70;;;;;;;;;;4971590;28;20739;-68
2024/01/12 07:28:52;;;;;;;14.13;8.73;;;;;;;;;;4988925;28;20210;-69
2024/01/12 07:31:20;;;;;;;14.10;8.40;;;;;;;;;;4977892;28;20749;-69
2024/01/12 07:33:47;;;;;;;17.47;8.77;;;;;;;;;;4976188;28;20671;-69
2024/01/12 07:36:14;;;;;;;18.70;9.40;;;;;;;;;;4979355;28;20234;-69
2024/01/12 07:38:41;;;;;;;15.67;8.93;;;;;;;;;;4969450;28;20243;-68
2024/01/12 07:41:08;;;;;;;17.30;9.20;;;;;;;;;;4968956;28;20692;-68
2024/01/12 07:43:35;;;;;;;18.93;9.40;;;;;;;;;;4973543;28;20215;-69
2024/01/12 07:46:02;;;;;;;18.37;9.67;;;;;;;;;;4969306;28;20209;-69
2024/01/12 07:48:31;;;;;;;16.63;9.83;;;;;;;;;;4969741;28;20211;-69
2024/01/12 07:50:58;;;;;;;13.53;8.90;;;;;;;;;;4968741;28;20227;-68
2024/01/12 07:53:25;;;;;;;19.30;9.10;;;;;;;;;;4969901;28;20230;-69
2024/01/12 07:55:52;;;;;;;16.60;9.10;;;;;;;;;;4965211;28;20230;-68
2024/01/12 07:58:20;;;;;;;15.40;8.80;;;;;;;;;;4963454;28;20239;-69
2024/01/12 08:00:47;;;;;;;18.33;9.37;;;;;;;;;;4969958;28;20301;-69
2024/01/12 08:03:14;;;;;;;18.77;9.07;;;;;;;;;;4969552;28;20294;-69
2024/01/12 08:05:42;;;;;;;16.57;8.83;;;;;;;;;;4969038;28;20236;-68
2024/01/12 08:08:09;;;;;;;13.53;7.70;;;;;;;;;;4969480;28;21049;-68
2024/01/12 08:10:36;;;;;;;15.37;8.30;;;;;;;;;;4969290;28;20215;-68
2024/01/12 08:13:04;;;;;;;16.43;8.77;;;;;;;;;;4968221;28;20227;-67
2024/01/12 08:15:32;;;;;;;14.97;8.47;;;;;;;;;;4969440;28;20260;-67
2024/01/12 08:17:59;;;;;;;17.57;8.13;;;;;;;;;;4969412;28;20239;-68
2024/01/12 08:20:26;;;;;;;16.17;7.90;;;;;;;;;;4970256;28;20217;-68
2024/01/12 08:22:54;;;;;;;14.37;7.37;;;;;;;;;;4972190;28;20204;-68
2024/01/12 08:25:23;;;;;;;15.57;7.93;;;;;;;;;;4973191;28;20715;-68
2024/01/12 08:27:50;;;;;;;14.43;7.83;;;;;;;;;;4974864;28;20215;-68
2024/01/12 08:30:17;;;;;;;14.03;8.30;;;;;;;;;;4975040;28;20593;-67
2024/01/12 08:32:44;;;;;;;16.97;8.93;;;;;;;;;;4977835;28;20629;-68
2024/01/12 08:35:11;;;;;;;16.17;8.83;;;;;;;;;;4977089;28;20227;-68
2024/01/12 08:37:38;;;;;;;17.57;9.77;;;;;;;;;;4977887;28;20207;-69
2024/01/12 08:40:07;;;;;;;18.53;8.80;;;;;;;;;;4977653;28;20213;-69
2024/01/12 08:42:34;;;;;;;19.07;9.20;;;;;;;;;;4977670;28;20212;-69
2024/01/12 08:45:02;;;;;;;19.00;9.17;;;;;;;;;;4977719;28;20216;-66
2024/01/12 08:47:29;;;;;;;21.77;9.53;;;;;;;;;;4978760;28;20887;-71
2024/01/12 08:49:58;;;;;;;16.70;9.17;;;;;;;;;;4979010;28;20711;-69
2024/01/12 08:52:25;;;;;;;18.30;9.77;;;;;;;;;;4977575;28;20255;-67
2024/01/12 08:54:52;;;;;;;20.73;10.43;;;;;;;;;;4981675;28;20217;-68
2024/01/12 08:57:20;;;;;;;15.50;9.00;;;;;;;;;;4981188;28;20317;-77
2024/01/12 08:59:48;;;;;;;18.03;8.87;;;;;;;;;;4979889;28;20217;-69
2024/01/12 09:02:15;;;;;;;18.70;9.37;;;;;;;;;;4978509;28;20222;-69
2024/01/12 09:04:42;;;;;;;16.27;9.13;;;;;;;;;;4975905;28;20210;-69
2024/01/12 09:07:09;;;;;;;19.00;9.57;;;;;;;;;;4979486;28;20267;-69
2024/01/12 09:09:36;;;;;;;17.93;9.20;;;;;;;;;;4979990;28;20232;-70
2024/01/12 09:12:04;;;;;;;17.03;8.97;;;;;;;;;;4978994;28;20212;-71
2024/01/12 09:14:32;;;;;;;17.53;9.03;;;;;;;;;;4976426;28;20304;-69
2024/01/12 09:16:59;;;;;;;16.53;9.27;;;;;;;;;;4972602;28;20228;-69
2024/01/12 09:19:26;;;;;;;18.07;9.67;;;;;;;;;;4971918;28;20555;-69
2024/01/12 09:21:53;;;;;;;19.77;9.63;;;;;;;;;;4977327;28;20221;-71
2024/01/12 09:24:20;;;;;;;18.67;9.20;;;;;;;;;;4972353;28;20209;-69
2024/01/12 09:26:47;;;;;;;16.10;8.57;;;;;;;;;;4971674;28;20716;-69
2024/01/12 09:29:14;;;;;;;15.57;7.97;;;;;;;;;;4984984;28;20216;-69
2024/01/12 09:31:42;;;;;;;16.70;8.87;;;;;;;;;;4987326;28;20665;-69
2024/01/12 09:34:09;;;;;;;13.73;7.93;;;;;;;;;;4971474;28;20210;-69
2024/01/12 09:36:36;;;;;;;16.70;8.43;;;;;;;;;;4969400;28;20239;-69
2024/01/12 09:39:03;;;;;;;15.67;8.67;;;;;;;;;;4971562;28;20217;-69
2024/01/12 09:41:37;;;;;;;15.63;7.90;;;;;;;;;;4972073;28;20833;-69
2024/01/12 09:44:05;;;;;;;14.17;8.33;;;;;;;;;;4961116;28;20212;-70
2024/01/12 09:46:40;;;;;;;15.40;7.50;;;;;;;;;;4970966;28;20694;-70
2024/01/12 09:49:08;;;;;;;15.13;8.00;;;;;;;;;;4962004;28;20635;-70
2024/01/12 09:51:35;;;;;;;15.93;7.47;;;;;;;;;;4969859;28;20336;-70
2024/01/12 09:54:02;;;;;;;12.47;7.73;;;;;;;;;;4968500;28;20207;-70
2024/01/12 09:56:30;;;;;;;12.37;7.63;;;;;;;;;;4970162;28;20275;-70
2024/01/12 09:58:57;;;;;;;12.80;7.93;;;;;;;;;;4969103;28;20662;-73
2024/01/12 10:01:25;;;;;;;14.33;8.10;;;;;;;;;;4970567;28;20217;-69
2024/01/12 10:03:52;;;;;;;13.63;7.83;;;;;;;;;;4969682;28;20299;-69
2024/01/12 10:06:20;;;;;;;12.13;6.93;;;;;;;;;;4971820;28;20204;-69
2024/01/12 10:08:48;;;;;;;14.03;7.70;;;;;;;;;;4966660;28;20214;-69
2024/01/12 10:11:15;;;;;;;13.97;7.20;;;;;;;;;;4969621;28;20216;-69
2024/01/12 10:13:42;;;;;;;12.93;8.00;;;;;;;;;;4969291;28;20221;-69
2024/01/12 10:16:11;;;;;;;12.03;7.40;;;;;;;;;;4969992;28;20702;-69
2024/01/12 10:18:38;;;;;;;12.60;7.90;;;;;;;;;;4968676;28;20218;-69
2024/01/12 10:21:05;;;;;;;10.83;6.70;;;;;;;;;;4966776;28;20240;-69
2024/01/12 10:23:33;;;;;;;15.20;8.30;;;;;;;;;;4969707;28;20611;-69
2024/01/12 10:26:01;;;;;;;11.63;7.73;;;;;;;;;;4969241;28;20213;-69
2024/01/12 10:28:29;;;;;;;11.83;6.97;;;;;;;;;;4965448;28;20297;-70
2024/01/12 10:30:56;;;;;;;7.73;6.20;;;;;;;;;;4958403;28;20297;-69
2024/01/12 10:33:23;;;;;;;10.80;6.87;;;;;;;;;;4953179;28;20214;-69
2024/01/12 10:35:53;;;;;;;11.00;6.47;;;;;;;;;;4964762;28;20270;-69
2024/01/12 10:38:21;;;;;;;14.77;8.00;;;;;;;;;;4968136;28;20331;-76
2024/01/12 10:40:50;;;;;;;20.50;8.53;;;;;;;;;;4967044;28;20213;-72
2024/01/12 10:43:20;;;;;;;67.20;23.33;;;;;;;;;;4960851;28;20213;-68
2024/01/12 10:45:51;;;;;;;59.33;22.33;;;;;;;;;;4966815;28;20217;-71
2024/01/12 10:48:21;;;;;;;19.97;10.00;;;;;;;;;;4969739;28;20217;-69
2024/01/12 10:50:51;;;;;;;14.50;7.80;;;;;;;;;;4969083;28;20265;-70
2024/01/12 10:53:20;;;;;;;13.80;7.60;;;;;;;;;;4952060;28;20215;-70
2024/01/12 10:55:50;;;;;;;20.73;10.53;;;;;;;;;;4968894;28;20210;-70
2024/01/12 10:58:19;;;;;;;18.07;7.33;;;;;;;;;;4969868;28;20284;-70
2024/01/12 11:00:46;;;;;;;22.70;9.37;;;;;;;;;;4964517;28;20218;-70
2024/01/12 11:03:16;;;;;;;47.43;19.10;;;;;;;;;;4967137;28;20264;-69
2024/01/12 11:05:44;;;;;;;25.90;11.03;;;;;;;;;;4969419;28;20223;-70
2024/01/12 11:08:13;;;;;;;16.00;7.90;;;;;;;;;;4955591;28;20734;-70
2024/01/12 11:10:42;;;;;;;14.13;7.77;;;;;;;;;;4969746;28;20218;-69
2024/01/12 11:13:13;;;;;;;14.17;7.50;;;;;;;;;;4969502;28;20324;-70
2024/01/12 11:15:42;;;;;;;16.20;7.87;;;;;;;;;;4967615;28;20249;-69
2024/01/12 11:18:09;;;;;;;15.77;8.17;;;;;;;;;;4968511;28;20209;-70
2024/01/12 11:20:38;;;;;;;16.40;7.73;;;;;;;;;;4969162;28;20214;-69
2024/01/12 11:23:06;;;;;;;12.43;6.70;;;;;;;;;;4968560;28;20689;-70
2024/01/12 11:25:33;;;;;;;10.03;5.57;;;;;;;;;;4968925;28;20224;-69
2024/01/12 11:28:00;;;;;;;15.17;8.27;;;;;;;;;;4968632;28;20217;-70
2024/01/12 11:30:29;;;;;;;11.00;6.10;;;;;;;;;;4974858;28;20240;-70
2024/01/12 11:33:03;;;;;;;16.73;8.23;;;;;;;;;;4975258;28;20229;-70
2024/01/12 11:35:31;;;;;;;12.97;6.20;;;;;;;;;;4969074;28;20210;-70
2024/01/12 11:38:02;;;;;;;10.93;6.60;;;;;;;;;;4959053;28;20417;-70
2024/01/12 11:40:30;;;;;;;11.27;6.63;;;;;;;;;;4964826;28;20820;-69
2024/01/12 11:42:59;;;;;;;14.33;7.37;;;;;;;;;;4968965;28;20237;-70
2024/01/12 11:45:27;;;;;;;12.97;6.83;;;;;;;;;;4968867;28;20717;-69
2024/01/12 11:47:54;;;;;;;21.23;10.03;;;;;;;;;;4966579;28;20211;-69
2024/01/12 11:50:24;;;;;;;10.30;6.40;;;;;;;;;;4967958;28;20329;-70
2024/01/12 11:52:58;;;;;;;8.83;5.47;;;;;;;;;;4968794;28;20328;-70
2024/01/12 11:55:25;;;;;;;6.17;4.73;;;;;;;;;;4965583;28;20217;-69
2024/01/12 11:57:53;;;;;;;8.87;5.23;;;;;;;;;;4967498;28;20743;-69
2024/01/12 12:00:21;;;;;;;9.83;6.50;;;;;;;;;;4967803;28;20739;-70
2024/01/12 12:02:48;;;;;;;9.77;6.03;;;;;;;;;;4969238;28;20210;-80
2024/01/12 12:05:15;;;;;;;13.40;7.77;;;;;;;;;;4964020;28;20210;-71
2024/01/12 12:10:47;;;;;;;9.90;6.37;;;;;;;;;;4956199;28;20197;-67
2024/01/12 12:13:15;;;;;;;8.63;5.50;;;;;;;;;;4955428;28;20207;-65
2024/01/12 12:15:42;;;;;;;51.87;29.83;;;;;;;;;;4960994;28;20214;-67
2024/01/12 12:18:09;;;;;;;9.57;6.13;;;;;;;;;;4966111;28;20230;-64
2024/01/12 12:20:36;;;;;;;15.57;9.70;;;;;;;;;;4965533;28;20203;-65
2024/01/12 12:23:03;;;;;;;19.47;10.30;;;;;;;;;;4964833;28;20261;-64
2024/01/12 12:25:30;;;;;;;10.60;6.63;;;;;;;;;;4968590;28;20218;-67
2024/01/12 12:27:59;;;;;;;7.20;5.33;;;;;;;;;;4968557;28;20301;-64
2024/01/12 12:30:29;;;;;;;10.33;6.60;;;;;;;;;;4966230;28;20689;-67
2024/01/12 12:32:59;;;;;;;8.57;5.70;;;;;;;;;;4972443;28;20210;-64
2024/01/12 12:35:26;;;;;;;7.55;5.82;;;;;;;;;;4972141;28;20497;-63
2024/01/12 12:37:53;;;;;;;4.80;4.30;;;;;;;;;;4971859;28;20308;-71
2024/01/12 12:40:21;;;;;;;16.10;8.13;;;;;;;;;;4972162;28;20214;-66
2024/01/12 12:42:48;;;;;;;16.50;9.20;;;;;;;;;;4971557;28;20368;-68
2024/01/12 12:45:17;;;;;;;6.77;5.10;;;;;;;;;;4966229;28;20736;-68
2024/01/12 12:47:45;;;;;;;6.63;4.37;;;;;;;;;;4969665;28;20198;-69
2024/01/12 12:50:12;;;;;;;8.40;4.70;;;;;;;;;;4971265;28;20278;-69
2024/01/12 12:52:40;;;;;;;7.27;5.17;;;;;;;;;;4971714;28;20253;-69
2024/01/12 13:00:20;;;;;;;9.63;5.27;;;;;;;;;;5165465;23;20250;-68
2024/01/12 13:02:47;;;;;;;7.33;4.83;;;;;;;;;;4965892;28;20217;-70
2024/01/12 13:05:17;;;;;;;7.27;5.13;;;;;;;;;;4971917;28;20618;-72
2024/01/12 13:07:44;;;;;;;7.27;4.80;;;;;;;;;;4978313;28;20199;-73
2024/01/12 13:10:11;;;;;;;5.47;4.40;;;;;;;;;;4963487;28;20207;-71
2024/01/12 13:12:39;;;;;;;5.93;4.13;;;;;;;;;;4982247;28;20201;-73
2024/01/12 13:15:06;;;;;;;5.17;3.67;;;;;;;;;;4971240;28;20218;-65
2024/01/12 13:17:35;;;;;;;6.93;4.23;;;;;;;;;;4984466;28;20311;-60
2024/01/12 13:20:03;;;;;;;5.77;4.60;;;;;;;;;;4990399;28;20205;-62
2024/01/12 13:22:30;;;;;;;7.33;3.93;;;;;;;;;;4976909;28;20215;-61
2024/01/12 13:24:59;;;;;;;7.13;4.40;;;;;;;;;;4970991;28;20202;-66
2024/01/12 13:27:26;;;;;;;7.47;5.40;;;;;;;;;;4951399;28;20305;-59
2024/01/12 13:29:53;;;;;;;6.87;4.73;;;;;;;;;;4970188;28;20273;-61
2024/01/12 13:32:20;;;;;;;9.57;5.17;;;;;;;;;;4970727;28;20269;-62
2024/01/12 13:34:48;;;;;;;6.30;4.50;;;;;;;;;;4970953;28;20635;-62
2024/01/12 13:37:15;;;;;;;7.83;4.50;;;;;;;;;;4969051;28;20753;-61
2024/01/12 13:39:42;;;;;;;7.30;4.80;;;;;;;;;;4976867;28;20205;-63
2024/01/12 13:42:09;;;;;;;6.53;4.23;;;;;;;;;;4965000;28;20211;-61
2024/01/12 13:44:36;;;;;;;6.63;4.37;;;;;;;;;;4970236;28;20210;-63
2024/01/12 13:47:04;;;;;;;6.70;4.47;;;;;;;;;;4970693;28;20198;-63
2024/01/12 13:49:31;;;;;;;8.03;4.90;;;;;;;;;;4979312;28;20202;-62
2024/01/12 13:51:59;;;;;;;7.17;4.97;;;;;;;;;;4978453;28;20712;-61
2024/01/12 13:54:27;;;;;;;8.73;4.97;;;;;;;;;;4977942;28;20229;-60
2024/01/12 13:56:54;;;;;;;8.63;5.30;;;;;;;;;;4972131;28;20695;-60
2024/01/12 13:59:21;;;;;;;7.43;4.63;;;;;;;;;;4955855;28;20258;-64
2024/01/12 14:01:48;;;;;;;7.90;5.63;;;;;;;;;;4960305;28;20208;-63
2024/01/12 14:04:17;;;;;;;161.27;50.03;;;;;;;;;;4950548;29;20210;-59
2024/01/12 14:06:44;;;;;;;14.03;7.47;;;;;;;;;;4946880;28;20294;-60
2024/01/12 14:09:14;;;;;;;8.13;5.17;;;;;;;;;;4948758;28;20620;-59
2024/01/12 14:11:41;;;;;;;8.37;5.10;;;;;;;;;;4951073;29;20199;-59
2024/01/12 14:14:09;;;;;;;9.33;5.20;;;;;;;;;;4950051;28;20595;-60
2024/01/12 14:16:36;;;;;;;7.97;5.13;;;;;;;;;;4949484;28;20206;-59
2024/01/12 14:19:03;;;;;;;6.97;4.30;;;;;;;;;;4950273;28;20215;-60
2024/01/12 14:21:31;;;;;;;7.37;4.83;;;;;;;;;;4953722;28;20250;-60
2024/01/12 14:23:58;;;;;;;10.03;5.37;;;;;;;;;;4950815;29;20748;-60
2024/01/12 14:26:26;;;;;;;8.57;5.13;;;;;;;;;;4950461;28;20302;-60
2024/01/12 14:28:55;;;;;;;8.83;4.77;;;;;;;;;;4968472;28;20286;-60
2024/01/12 14:31:22;;;;;;;5.07;4.37;;;;;;;;;;4950714;28;20207;-60
2024/01/12 14:33:49;;;;;;;8.20;5.20;;;;;;;;;;4965027;28;20222;-60
2024/01/12 14:36:16;;;;;;;7.27;4.90;;;;;;;;;;4958932;28;20206;-60
2024/01/12 14:38:43;;;;;;;8.23;4.90;;;;;;;;;;4966565;28;20230;-60
2024/01/12 14:41:10;;;;;;;9.90;5.73;;;;;;;;;;4957197;28;20302;-60
2024/01/12 14:43:39;;;;;;;14.40;7.47;;;;;;;;;;4941792;28;20313;-60